createdAt,value
2018-12-13T00:00:24.144Z,23.10
2018-12-13T00:01:24.137Z,21.20
2018-12-13T00:02:24.119Z,22.60
2018-12-13T00:03:24.115Z,23.90
2018-12-13T00:04:24.103Z,23.80
2018-12-13T00:05:24.085Z,25.20
2018-12-13T00:06:24.084Z,26.10
2018-12-13T00:07:24.961Z,25.30
2018-12-13T00:08:24.050Z,25.60
2018-12-13T00:09:24.041Z,24.90
2018-12-13T00:10:24.036Z,24.40
2018-12-13T00:11:24.015Z,23.90
2018-12-13T00:12:24.027Z,25.20
2018-12-13T00:13:24.027Z,25.90
2018-12-13T00:14:24.004Z,24.10
2018-12-13T00:15:24.945Z,26.00
2018-12-13T00:16:23.999Z,26.00
2018-12-13T00:17:24.999Z,27.80
2018-12-13T00:18:23.964Z,28.80
2018-12-13T00:19:23.941Z,28.80
2018-12-13T00:20:23.934Z,28.20
2018-12-13T00:21:23.921Z,29.30
2018-12-13T00:22:23.928Z,27.80
2018-12-13T00:23:23.900Z,28.50
2018-12-13T00:24:23.912Z,29.80
2018-12-13T00:25:23.888Z,28.70
2018-12-13T00:26:23.879Z,31.80
2018-12-13T00:27:23.879Z,30.40
2018-12-13T00:28:23.841Z,32.10
2018-12-13T00:29:23.853Z,33.10
2018-12-13T00:30:23.832Z,32.40
2018-12-13T00:31:23.829Z,32.80
2018-12-13T00:32:23.820Z,33.30
2018-12-13T00:33:25.487Z,31.10
2018-12-13T00:34:23.789Z,32.80
2018-12-13T00:35:23.777Z,34.10
2018-12-13T00:36:24.489Z,34.80
2018-12-13T00:37:23.788Z,33.50
2018-12-13T00:38:23.745Z,33.70
2018-12-13T00:39:23.745Z,35.10
2018-12-13T00:40:23.728Z,38.60
2018-12-13T00:41:24.552Z,38.60
2018-12-13T00:42:23.705Z,34.90
2018-12-13T00:43:23.708Z,35.60
2018-12-13T00:44:23.715Z,33.60
2018-12-13T00:45:23.666Z,39.10
2018-12-13T00:46:23.652Z,35.90
2018-12-13T00:47:23.644Z,34.70
2018-12-13T00:48:23.633Z,38.10
2018-12-13T00:49:23.618Z,40.40
2018-12-13T00:50:23.626Z,36.20
2018-12-13T00:51:23.603Z,39.00
2018-12-13T00:52:23.587Z,38.30
2018-12-13T00:53:23.651Z,37.40
2018-12-13T00:54:23.585Z,38.10
2018-12-13T00:55:23.554Z,38.20
2018-12-13T00:56:23.566Z,40.20
2018-12-13T00:57:24.495Z,37.20
2018-12-13T00:58:23.539Z,39.40
2018-12-13T00:59:23.525Z,41.30
2018-12-13T01:00:23.526Z,41.50
2018-12-13T01:01:23.555Z,42.50
2018-12-13T01:02:23.502Z,44.20
2018-12-13T01:03:23.504Z,41.90
2018-12-13T01:04:23.475Z,40.90
2018-12-13T01:05:23.456Z,40.00
2018-12-13T01:06:24.455Z,39.40
2018-12-13T01:07:23.450Z,42.50
2018-12-13T01:08:23.462Z,42.30
2018-12-13T01:09:23.411Z,40.70
2018-12-13T01:10:23.397Z,41.40
2018-12-13T01:11:23.397Z,41.40
2018-12-13T01:12:23.416Z,44.40
2018-12-13T01:13:23.363Z,43.10
2018-12-13T01:14:23.356Z,41.70
2018-12-13T01:15:23.389Z,43.60
2018-12-13T01:16:23.347Z,41.90
2018-12-13T01:17:23.357Z,46.40
2018-12-13T01:18:23.341Z,42.50
2018-12-13T01:19:23.351Z,69.30
2018-12-13T01:20:23.289Z,56.10
2018-12-13T01:21:23.302Z,44.40
2018-12-13T01:22:23.283Z,49.90
2018-12-13T01:23:23.308Z,51.60
2018-12-13T01:24:23.261Z,48.20
2018-12-13T01:25:23.967Z,48.50
2018-12-13T01:26:23.231Z,51.70
2018-12-13T01:27:23.259Z,46.90
2018-12-13T01:28:23.232Z,49.80
2018-12-13T01:29:23.242Z,53.40
2018-12-13T01:30:23.180Z,53.40
2018-12-13T01:31:23.189Z,57.10
2018-12-13T01:32:23.191Z,53.40
2018-12-13T01:33:23.154Z,54.60
2018-12-13T01:34:24.006Z,60.00
2018-12-13T01:35:23.138Z,54.00
2018-12-13T01:36:23.118Z,59.40
2018-12-13T01:37:23.106Z,55.10
2018-12-13T01:38:23.092Z,54.80
2018-12-13T01:39:23.947Z,54.90
2018-12-13T01:40:23.080Z,57.60
2018-12-13T01:41:23.083Z,53.40
2018-12-13T01:42:23.073Z,59.70
2018-12-13T01:43:24.998Z,59.40
2018-12-13T01:44:23.035Z,60.50
2018-12-13T01:45:23.055Z,59.60
2018-12-13T01:46:24.054Z,60.50
2018-12-13T01:47:23.001Z,65.20
2018-12-13T01:48:22.982Z,62.10
2018-12-13T01:49:22.982Z,66.90
2018-12-13T01:50:23.000Z,65.80
2018-12-13T01:51:22.958Z,66.00
2018-12-13T01:52:22.953Z,60.20
2018-12-13T01:53:23.055Z,60.00
2018-12-13T01:54:23.936Z,60.90
2018-12-13T01:55:22.955Z,59.60
2018-12-13T01:56:22.911Z,62.50
2018-12-13T01:57:22.908Z,61.90
2018-12-13T01:58:22.889Z,59.10
2018-12-13T01:59:22.883Z,76.00
2018-12-13T02:00:22.879Z,85.00
2018-12-13T02:01:23.870Z,67.00
2018-12-13T02:02:22.913Z,74.10
2018-12-13T02:03:23.817Z,64.00
2018-12-13T02:04:23.837Z,57.40
2018-12-13T02:05:24.515Z,54.50
2018-12-13T02:06:22.797Z,49.90
2018-12-13T02:07:22.797Z,46.00
2018-12-13T02:08:22.800Z,45.00
2018-12-13T02:09:23.810Z,44.00
2018-12-13T02:10:22.800Z,44.70
2018-12-13T02:11:24.504Z,42.90
2018-12-13T02:12:22.745Z,39.90
2018-12-13T02:13:22.737Z,44.80
2018-12-13T02:14:22.714Z,48.30
2018-12-13T02:15:22.719Z,48.90
2018-12-13T02:16:22.706Z,48.50
2018-12-13T02:17:22.684Z,49.70
2018-12-13T02:18:22.666Z,46.80
2018-12-13T02:19:22.659Z,49.70
2018-12-13T02:20:22.655Z,47.00
2018-12-13T02:21:22.647Z,45.30
2018-12-13T02:22:22.620Z,44.60
2018-12-13T02:23:22.611Z,46.10
2018-12-13T02:24:22.607Z,47.10
2018-12-13T02:25:22.606Z,44.00
2018-12-13T02:26:22.589Z,45.80
2018-12-13T02:27:22.579Z,46.00
2018-12-13T02:28:22.600Z,45.00
2018-12-13T02:29:22.547Z,42.30
2018-12-13T02:30:22.537Z,43.00
2018-12-13T02:31:22.553Z,47.10
2018-12-13T02:32:22.523Z,43.10
2018-12-13T02:33:22.539Z,47.60
2018-12-13T02:34:22.494Z,46.00
2018-12-13T02:35:22.494Z,46.70
2018-12-13T02:36:22.472Z,46.30
2018-12-13T02:37:22.468Z,47.30
2018-12-13T02:38:22.455Z,47.60
2018-12-13T02:39:22.448Z,44.30
2018-12-13T02:40:22.450Z,45.90
2018-12-13T02:41:22.425Z,43.50
2018-12-13T02:42:22.403Z,43.30
2018-12-13T02:43:22.401Z,43.10
2018-12-13T02:44:22.405Z,43.20
2018-12-13T02:45:22.377Z,44.30
2018-12-13T02:46:22.358Z,43.30
2018-12-13T02:47:22.348Z,44.00
2018-12-13T02:48:22.994Z,44.50
2018-12-13T02:49:22.345Z,45.00
2018-12-13T02:50:22.335Z,45.80
2018-12-13T02:51:22.319Z,43.60
2018-12-13T02:52:22.307Z,42.40
2018-12-13T02:53:22.297Z,42.00
2018-12-13T02:54:22.306Z,40.90
2018-12-13T02:55:22.318Z,39.70
2018-12-13T02:56:22.275Z,38.30
2018-12-13T02:57:22.240Z,39.50
2018-12-13T02:58:22.238Z,39.10
2018-12-13T02:59:22.231Z,38.90
2018-12-13T03:00:22.221Z,38.90
2018-12-13T03:01:22.212Z,37.20
2018-12-13T03:02:22.193Z,37.40
2018-12-13T03:03:22.204Z,38.10
2018-12-13T03:04:22.165Z,40.60
2018-12-13T03:05:22.154Z,36.70
2018-12-13T03:06:22.146Z,38.20
2018-12-13T03:07:22.144Z,37.20
2018-12-13T03:08:22.131Z,37.40
2018-12-13T03:09:22.110Z,38.60
2018-12-13T03:10:22.120Z,36.10
2018-12-13T03:11:23.126Z,36.20
2018-12-13T03:12:22.099Z,35.30
2018-12-13T03:13:23.101Z,35.30
2018-12-13T03:14:23.063Z,36.70
2018-12-13T03:15:22.048Z,35.20
2018-12-13T03:16:22.068Z,36.50
2018-12-13T03:17:22.048Z,37.60
2018-12-13T03:18:22.027Z,38.10
2018-12-13T03:19:22.048Z,35.70
2018-12-13T03:21:14.998Z,34.60
2018-12-13T03:22:15.004Z,34.30
2018-12-13T03:23:15.944Z,34.50
2018-12-13T03:24:14.949Z,34.80
2018-12-13T03:25:14.929Z,36.60
2018-12-13T03:26:14.933Z,35.00
2018-12-13T03:27:14.909Z,35.40
2018-12-13T03:28:14.916Z,35.00
2018-12-13T03:29:14.889Z,35.30
2018-12-13T03:30:14.884Z,32.40
2018-12-13T03:31:14.867Z,33.40
2018-12-13T03:32:14.853Z,37.20
2018-12-13T03:33:14.848Z,36.40
2018-12-13T03:34:14.836Z,34.70
2018-12-13T03:35:14.829Z,33.80
2018-12-13T03:36:14.810Z,35.80
2018-12-13T03:37:20.517Z,35.10
2018-12-13T03:38:15.800Z,32.40
2018-12-13T03:39:14.776Z,33.30
2018-12-13T03:40:15.576Z,32.90
2018-12-13T03:41:14.752Z,32.60
2018-12-13T03:42:15.576Z,30.40
2018-12-13T03:43:14.741Z,30.00
2018-12-13T03:44:14.724Z,30.50
2018-12-13T03:45:14.722Z,31.50
2018-12-13T03:46:14.701Z,32.70
2018-12-13T03:47:14.703Z,31.70
2018-12-13T03:48:14.681Z,33.00
2018-12-13T03:49:14.685Z,31.10
2018-12-13T03:50:14.659Z,32.90
2018-12-13T03:51:14.652Z,33.00
2018-12-13T03:52:14.640Z,33.40
2018-12-13T03:53:14.630Z,32.50
2018-12-13T03:54:14.619Z,31.90
2018-12-13T03:55:14.617Z,31.30
2018-12-13T03:56:14.598Z,32.40
2018-12-13T03:57:14.602Z,34.20
2018-12-13T03:58:14.576Z,31.00
2018-12-13T03:59:14.571Z,32.80
2018-12-13T04:00:14.563Z,32.80
2018-12-13T04:01:14.545Z,32.50
2018-12-13T04:02:14.532Z,31.70
2018-12-13T04:03:14.537Z,31.90
2018-12-13T04:04:14.536Z,31.60
2018-12-13T04:05:14.500Z,32.70
2018-12-13T04:06:14.499Z,31.00
2018-12-13T04:07:14.483Z,32.20
2018-12-13T04:08:14.474Z,29.60
2018-12-13T04:09:14.460Z,32.80
2018-12-13T04:10:14.445Z,32.10
2018-12-13T04:11:14.438Z,32.20
2018-12-13T04:12:14.429Z,31.40
2018-12-13T04:13:15.078Z,31.80
2018-12-13T04:14:14.419Z,31.40
2018-12-13T04:15:14.390Z,32.70
2018-12-13T04:16:14.387Z,34.50
2018-12-13T04:17:14.370Z,34.80
2018-12-13T04:18:14.371Z,33.30
2018-12-13T04:19:14.360Z,35.80
2018-12-13T04:20:14.339Z,33.30
2018-12-13T04:21:14.346Z,34.30
2018-12-13T04:22:14.318Z,35.70
2018-12-13T04:23:14.318Z,34.90
2018-12-13T04:24:14.294Z,36.20
2018-12-13T04:25:14.291Z,36.10
2018-12-13T04:26:14.276Z,36.70
2018-12-13T04:27:14.265Z,37.20
2018-12-13T04:28:14.259Z,35.70
2018-12-13T04:29:15.080Z,34.60
2018-12-13T04:30:14.259Z,32.60
2018-12-13T04:31:14.213Z,34.40
2018-12-13T04:32:14.227Z,34.00
2018-12-13T04:33:14.218Z,33.50
2018-12-13T04:34:14.210Z,34.30
2018-12-13T04:35:14.191Z,34.10
2018-12-13T04:36:14.178Z,34.10
2018-12-13T04:37:14.170Z,35.70
2018-12-13T04:38:15.125Z,34.10
2018-12-13T04:39:14.147Z,32.50
2018-12-13T04:40:14.143Z,34.40
2018-12-13T04:41:14.139Z,34.70
2018-12-13T04:42:14.106Z,34.40
2018-12-13T04:43:14.106Z,37.10
2018-12-13T04:44:14.112Z,38.50
2018-12-13T04:45:14.094Z,35.30
2018-12-13T04:46:14.575Z,36.30
2018-12-13T04:47:14.060Z,35.60
2018-12-13T04:48:14.053Z,37.10
2018-12-13T04:49:14.048Z,37.20
2018-12-13T04:50:14.035Z,37.80
2018-12-13T04:52:06.185Z,35.20
2018-12-13T04:53:06.179Z,35.60
2018-12-13T04:54:06.155Z,37.60
2018-12-13T04:55:06.152Z,38.50
2018-12-13T04:56:06.145Z,37.60
2018-12-13T04:57:06.147Z,37.50
2018-12-13T04:58:06.116Z,38.30
2018-12-13T04:59:06.099Z,37.60
2018-12-13T05:00:06.100Z,38.70
2018-12-13T05:01:06.087Z,37.30
2018-12-13T05:02:06.088Z,39.00
2018-12-13T05:03:06.062Z,37.70
2018-12-13T05:04:06.059Z,39.80
2018-12-13T05:05:06.040Z,36.30
2018-12-13T05:06:06.039Z,38.20
2018-12-13T05:07:06.038Z,38.30
2018-12-13T05:08:06.018Z,41.10
2018-12-13T05:09:06.007Z,40.70
2018-12-13T05:10:06.005Z,44.50
2018-12-13T05:11:05.983Z,43.50
2018-12-13T05:12:05.973Z,41.50
2018-12-13T05:13:05.961Z,41.30
2018-12-13T05:14:05.949Z,37.60
2018-12-13T05:15:05.937Z,37.70
2018-12-13T05:16:05.934Z,38.70
2018-12-13T05:17:05.925Z,38.20
2018-12-13T05:18:05.908Z,36.80
2018-12-13T05:19:05.895Z,35.90
2018-12-13T05:20:05.891Z,34.10
2018-12-13T05:21:06.591Z,35.70
2018-12-13T05:22:05.866Z,34.50
2018-12-13T05:23:05.856Z,36.40
2018-12-13T05:24:05.835Z,34.10
2018-12-13T05:25:05.842Z,37.10
2018-12-13T05:26:13.739Z,38.80
2018-12-13T05:27:05.808Z,38.60
2018-12-13T05:28:05.801Z,39.70
2018-12-13T05:29:05.798Z,42.10
2018-12-13T05:30:05.803Z,42.30
2018-12-13T05:31:05.765Z,39.80
2018-12-13T05:32:05.757Z,40.00
2018-12-13T05:33:06.619Z,38.70
2018-12-13T05:34:05.745Z,39.00
2018-12-13T05:35:05.726Z,37.40
2018-12-13T05:36:05.719Z,37.20
2018-12-13T05:37:05.708Z,38.60
2018-12-13T05:38:05.698Z,39.90
2018-12-13T05:39:05.687Z,39.10
2018-12-13T05:40:06.648Z,38.20
2018-12-13T05:41:05.664Z,39.00
2018-12-13T05:42:05.674Z,39.70
2018-12-13T05:43:05.644Z,36.60
2018-12-13T05:44:05.634Z,39.00
2018-12-13T05:45:05.619Z,39.20
2018-12-13T05:46:05.613Z,37.90
2018-12-13T05:47:05.612Z,37.80
2018-12-13T05:48:06.589Z,40.30
2018-12-13T05:49:05.594Z,37.10
2018-12-13T05:50:05.589Z,36.60
2018-12-13T05:51:05.556Z,37.30
2018-12-13T05:52:05.556Z,36.30
2018-12-13T05:53:05.533Z,37.80
2018-12-13T05:54:05.546Z,37.50
2018-12-13T05:55:05.518Z,36.30
2018-12-13T05:56:05.517Z,38.70
2018-12-13T05:57:05.503Z,37.10
2018-12-13T05:58:05.492Z,39.80
2018-12-13T05:59:05.480Z,38.40
2018-12-13T06:00:57.353Z,39.00
2018-12-13T06:01:57.312Z,39.80
2018-12-13T06:02:57.301Z,40.80
2018-12-13T06:03:57.292Z,43.20
2018-12-13T06:04:57.281Z,43.50
2018-12-13T06:05:57.272Z,42.20
2018-12-13T06:06:57.259Z,39.70
2018-12-13T06:07:58.071Z,40.10
2018-12-13T06:08:57.243Z,36.80
2018-12-13T06:09:57.231Z,38.50
2018-12-13T06:10:57.222Z,38.10
2018-12-13T06:11:57.213Z,38.40
2018-12-13T06:12:57.194Z,39.30
2018-12-13T06:13:57.185Z,39.90
2018-12-13T06:14:57.192Z,38.10
2018-12-13T06:15:57.206Z,38.80
2018-12-13T06:16:57.158Z,39.60
2018-12-13T06:17:57.148Z,40.80
2018-12-13T06:18:57.135Z,38.40
2018-12-13T06:19:57.131Z,37.30
2018-12-13T06:20:57.114Z,40.70
2018-12-13T06:21:58.101Z,39.40
2018-12-13T06:22:57.092Z,39.90
2018-12-13T06:23:57.080Z,38.70
2018-12-13T06:24:57.072Z,39.60
2018-12-13T06:25:57.057Z,40.20
2018-12-13T06:26:57.053Z,39.40
2018-12-13T06:27:57.040Z,38.60
2018-12-13T06:28:57.031Z,40.40
2018-12-13T06:29:59.080Z,39.80
2018-12-13T06:30:57.017Z,40.40
2018-12-13T06:31:56.994Z,39.10
2018-12-13T06:32:56.981Z,38.20
2018-12-13T06:33:56.979Z,40.30
2018-12-13T06:34:56.960Z,40.00
2018-12-13T06:35:56.957Z,40.00
2018-12-13T06:36:57.605Z,39.80
2018-12-13T06:38:01.313Z,40.60
2018-12-13T06:38:56.918Z,38.20
2018-12-13T06:39:56.917Z,40.60
2018-12-13T06:40:56.900Z,42.10
2018-12-13T06:41:56.889Z,40.20
2018-12-13T06:42:56.893Z,40.90
2018-12-13T06:43:56.876Z,43.70
2018-12-13T06:44:56.859Z,42.90
2018-12-13T06:45:56.850Z,43.70
2018-12-13T06:46:56.835Z,44.00
2018-12-13T06:47:56.826Z,42.40
2018-12-13T06:48:56.812Z,43.40
2018-12-13T06:49:56.808Z,42.90
2018-12-13T06:50:56.796Z,41.90
2018-12-13T06:51:56.814Z,43.30
2018-12-13T06:52:56.820Z,39.40
2018-12-13T06:53:56.765Z,40.60
2018-12-13T06:54:56.757Z,42.10
2018-12-13T06:55:56.739Z,44.90
2018-12-13T06:56:56.734Z,44.10
2018-12-13T06:57:56.742Z,42.90
2018-12-13T06:58:56.711Z,43.60
2018-12-13T06:59:56.702Z,43.30
2018-12-13T07:00:56.697Z,47.70
2018-12-13T07:01:56.679Z,41.30
2018-12-13T07:02:56.661Z,42.10
2018-12-13T07:03:56.704Z,44.80
2018-12-13T07:04:56.649Z,43.10
2018-12-13T07:05:56.639Z,45.70
2018-12-13T07:06:56.625Z,46.30
2018-12-13T07:07:56.621Z,47.40
2018-12-13T07:08:56.609Z,47.50
2018-12-13T07:09:56.604Z,48.30
2018-12-13T07:10:56.600Z,48.70
2018-12-13T07:11:56.584Z,47.30
2018-12-13T07:12:56.568Z,46.80
2018-12-13T07:13:56.556Z,42.80
2018-12-13T07:14:56.550Z,42.40
2018-12-13T07:15:56.537Z,43.60
2018-12-13T07:16:56.523Z,40.40
2018-12-13T07:17:56.514Z,41.90
2018-12-13T07:18:56.502Z,40.00
2018-12-13T07:19:56.489Z,40.60
2018-12-13T07:20:56.477Z,40.70
2018-12-13T07:21:56.478Z,42.40
2018-12-13T07:22:56.462Z,38.40
2018-12-13T07:23:56.446Z,38.90
2018-12-13T07:24:56.437Z,39.30
2018-12-13T07:25:56.429Z,38.40
2018-12-13T07:26:56.421Z,39.40
2018-12-13T07:27:57.111Z,38.00
2018-12-13T07:28:56.400Z,39.90
2018-12-13T07:29:56.384Z,40.50
2018-12-13T07:30:56.373Z,38.50
2018-12-13T07:31:56.364Z,37.40
2018-12-13T07:32:56.363Z,41.20
2018-12-13T07:33:56.354Z,40.30
2018-12-13T07:35:01.335Z,42.10
2018-12-13T07:35:57.326Z,42.50
2018-12-13T07:36:56.320Z,40.00
2018-12-13T07:37:56.309Z,37.30
2018-12-13T07:38:56.299Z,41.40
2018-12-13T07:39:57.083Z,39.70
2018-12-13T07:40:56.267Z,38.30
2018-12-13T07:41:56.252Z,36.60
2018-12-13T07:42:56.241Z,39.00
2018-12-13T07:43:56.240Z,40.50
2018-12-13T07:44:56.228Z,37.70
2018-12-13T07:45:56.223Z,37.60
2018-12-13T07:46:56.212Z,36.20
2018-12-13T07:47:56.191Z,36.00
2018-12-13T07:48:56.664Z,33.80
2018-12-13T07:49:56.188Z,36.80
2018-12-13T07:50:56.169Z,35.40
2018-12-13T07:51:56.159Z,36.10
2018-12-13T07:52:56.139Z,32.90
2018-12-13T07:53:56.129Z,36.00
2018-12-13T07:54:56.118Z,34.90
2018-12-13T07:55:56.118Z,34.30
2018-12-13T07:56:56.100Z,33.70
2018-12-13T07:57:56.086Z,35.20
2018-12-13T07:58:57.074Z,34.30
2018-12-13T07:59:56.066Z,30.70
2018-12-13T08:00:56.054Z,31.70
2018-12-13T08:01:56.070Z,35.60
2018-12-13T08:02:56.031Z,35.00
2018-12-13T08:03:56.581Z,34.80
2018-12-13T08:04:56.015Z,35.00
2018-12-13T08:05:56.004Z,31.40
2018-12-13T08:06:55.991Z,30.30
2018-12-13T08:07:55.988Z,30.60
2018-12-13T08:08:55.972Z,30.40
2018-12-13T08:09:55.967Z,30.30
2018-12-13T08:10:55.951Z,29.90
2018-12-13T08:11:55.945Z,30.30
2018-12-13T08:12:55.928Z,30.80
2018-12-13T08:13:55.930Z,35.20
2018-12-13T08:14:55.913Z,29.70
2018-12-13T08:15:55.910Z,29.40
2018-12-13T08:16:55.888Z,31.00
2018-12-13T08:17:55.881Z,31.50
2018-12-13T08:18:55.877Z,30.90
2018-12-13T08:19:55.856Z,30.90
2018-12-13T08:20:55.878Z,27.90
2018-12-13T08:21:55.842Z,29.90
2018-12-13T08:22:55.828Z,29.30
2018-12-13T08:23:55.813Z,29.70
2018-12-13T08:24:57.577Z,28.60
2018-12-13T08:25:55.790Z,28.90
2018-12-13T08:26:55.797Z,29.80
2018-12-13T08:27:55.786Z,29.60
2018-12-13T08:28:55.773Z,31.50
2018-12-13T08:29:55.763Z,29.40
2018-12-13T08:30:55.745Z,29.20
2018-12-13T08:31:55.759Z,29.30
2018-12-13T08:32:55.721Z,31.30
2018-12-13T08:33:55.714Z,30.50
2018-12-13T08:34:55.697Z,30.90
2018-12-13T08:35:55.705Z,30.50
2018-12-13T08:36:55.679Z,29.30
2018-12-13T08:37:55.673Z,29.80
2018-12-13T08:38:56.554Z,31.40
2018-12-13T08:39:56.652Z,29.50
2018-12-13T08:40:55.633Z,31.20
2018-12-13T08:41:55.623Z,30.80
2018-12-13T08:42:55.615Z,32.00
2018-12-13T08:44:47.944Z,28.30
2018-12-13T08:45:47.916Z,28.70
2018-12-13T08:46:47.922Z,30.20
2018-12-13T08:47:47.897Z,29.00
2018-12-13T08:48:47.894Z,30.40
2018-12-13T08:49:47.877Z,29.10
2018-12-13T08:50:47.863Z,29.60
2018-12-13T08:51:47.856Z,31.70
2018-12-13T08:52:47.842Z,29.30
2018-12-13T08:53:47.831Z,29.80
2018-12-13T08:54:47.828Z,31.40
2018-12-13T08:55:47.807Z,29.90
2018-12-13T08:56:47.797Z,29.80
2018-12-13T08:57:47.795Z,32.30
2018-12-13T08:58:47.780Z,32.50
2018-12-13T08:59:47.766Z,30.70
2018-12-13T09:00:47.759Z,29.60
2018-12-13T09:01:47.751Z,30.80
2018-12-13T09:02:47.741Z,29.70
2018-12-13T09:03:47.731Z,29.10
2018-12-13T09:04:47.724Z,29.80
2018-12-13T09:05:47.702Z,31.80
2018-12-13T09:06:47.706Z,28.40
2018-12-13T09:07:47.683Z,28.20
2018-12-13T09:08:47.688Z,27.40
2018-12-13T09:09:47.679Z,30.50
2018-12-13T09:10:47.651Z,29.00
2018-12-13T09:11:47.638Z,27.50
2018-12-13T09:12:47.628Z,28.10
2018-12-13T09:13:48.623Z,28.40
2018-12-13T09:14:47.612Z,31.30
2018-12-13T09:15:47.607Z,32.50
2018-12-13T09:16:47.586Z,30.50
2018-12-13T09:17:47.581Z,30.80
2018-12-13T09:18:47.569Z,30.80
2018-12-13T09:19:47.569Z,29.00
2018-12-13T09:20:47.544Z,30.30
2018-12-13T09:21:47.533Z,28.60
2018-12-13T09:22:47.526Z,29.90
2018-12-13T09:23:47.507Z,31.70
2018-12-13T09:24:47.509Z,31.00
2018-12-13T09:25:47.490Z,30.90
2018-12-13T09:26:47.482Z,31.70
2018-12-13T09:27:47.484Z,29.70
2018-12-13T09:28:47.471Z,30.90
2018-12-13T09:29:47.459Z,30.80
2018-12-13T09:30:47.449Z,31.20
2018-12-13T09:31:47.429Z,30.70
2018-12-13T09:32:47.423Z,30.20
2018-12-13T09:33:47.406Z,28.80
2018-12-13T09:34:47.400Z,29.30
2018-12-13T09:35:47.388Z,29.40
2018-12-13T09:36:47.380Z,29.30
2018-12-13T09:37:47.899Z,30.00
2018-12-13T09:38:47.362Z,33.30
2018-12-13T09:39:47.339Z,30.20
2018-12-13T09:40:47.335Z,31.50
2018-12-13T09:41:47.331Z,29.20
2018-12-13T09:42:47.335Z,28.90
2018-12-13T09:43:47.295Z,30.20
2018-12-13T09:44:47.290Z,31.30
2018-12-13T09:45:47.278Z,30.70
2018-12-13T09:46:47.292Z,29.20
2018-12-13T09:47:47.259Z,28.70
2018-12-13T09:48:47.263Z,28.40
2018-12-13T09:49:47.244Z,29.50
2018-12-13T09:50:48.238Z,29.00
2018-12-13T09:51:47.210Z,27.70
2018-12-13T09:52:47.204Z,27.60
2018-12-13T09:53:47.193Z,28.10
2018-12-13T09:54:47.194Z,28.20
2018-12-13T09:55:47.170Z,26.60
2018-12-13T09:56:47.180Z,29.00
2018-12-13T09:57:49.763Z,28.50
2018-12-13T09:58:47.151Z,28.70
2018-12-13T09:59:47.137Z,26.70
2018-12-13T10:00:49.733Z,28.40
2018-12-13T10:01:48.113Z,28.80
2018-12-13T10:02:47.730Z,27.00
2018-12-13T10:03:48.089Z,26.00
2018-12-13T10:04:47.078Z,27.30
2018-12-13T10:05:47.742Z,26.00
2018-12-13T10:06:47.059Z,24.60
2018-12-13T10:07:47.041Z,24.50
2018-12-13T10:08:47.037Z,25.20
2018-12-13T10:09:47.022Z,24.10
2018-12-13T10:10:47.012Z,23.90
2018-12-13T10:11:47.721Z,24.50
2018-12-13T10:12:46.990Z,23.30
2018-12-13T10:13:46.976Z,24.00
2018-12-13T10:14:46.970Z,23.20
2018-12-13T10:15:46.980Z,23.40
2018-12-13T10:16:46.943Z,25.30
2018-12-13T10:17:46.941Z,26.00
2018-12-13T10:18:46.961Z,25.30
2018-12-13T10:19:46.920Z,25.50
2018-12-13T10:20:46.909Z,24.90
2018-12-13T10:21:47.889Z,24.00
2018-12-13T10:22:47.891Z,24.90
2018-12-13T10:23:46.891Z,25.40
2018-12-13T10:24:46.866Z,24.50
2018-12-13T10:25:46.850Z,23.90
2018-12-13T10:26:46.842Z,23.20
2018-12-13T10:27:46.829Z,26.40
2018-12-13T10:28:46.821Z,23.90
2018-12-13T10:29:46.802Z,25.70
2018-12-13T10:30:46.807Z,24.30
2018-12-13T10:31:46.788Z,26.10
2018-12-13T10:32:46.776Z,23.80
2018-12-13T10:33:46.767Z,24.00
2018-12-13T10:34:46.760Z,23.40
2018-12-13T10:35:46.762Z,24.10
2018-12-13T10:36:46.747Z,24.30
2018-12-13T10:37:46.727Z,23.90
2018-12-13T10:38:52.809Z,23.30
2018-12-13T10:39:47.701Z,23.90
2018-12-13T10:40:46.691Z,23.60
2018-12-13T10:41:46.681Z,23.50
2018-12-13T10:42:46.665Z,23.60
2018-12-13T10:43:46.659Z,25.10
2018-12-13T10:44:46.662Z,23.90
2018-12-13T10:45:46.636Z,22.70
2018-12-13T10:46:46.631Z,24.40
2018-12-13T10:47:46.622Z,23.50
2018-12-13T10:48:46.601Z,25.00
2018-12-13T10:49:47.222Z,25.00
2018-12-13T10:50:46.586Z,24.60
2018-12-13T10:51:46.576Z,23.50
2018-12-13T10:52:46.566Z,23.60
2018-12-13T10:53:46.556Z,22.00
2018-12-13T10:54:46.544Z,24.20
2018-12-13T10:55:46.528Z,23.20
2018-12-13T10:56:46.520Z,24.30
2018-12-13T10:57:46.600Z,24.20
2018-12-13T10:58:46.499Z,23.60
2018-12-13T10:59:46.496Z,22.50
2018-12-13T11:00:46.474Z,22.70
2018-12-13T11:01:47.246Z,23.80
2018-12-13T11:02:46.469Z,23.60
2018-12-13T11:03:46.445Z,24.70
2018-12-13T11:04:46.441Z,23.50
2018-12-13T11:05:46.422Z,26.10
2018-12-13T11:06:46.415Z,24.40
2018-12-13T11:07:47.223Z,24.70
2018-12-13T11:08:46.393Z,23.30
2018-12-13T11:09:46.386Z,25.20
2018-12-13T11:10:46.411Z,25.60
2018-12-13T11:11:46.361Z,25.00
2018-12-13T11:12:46.350Z,24.00
2018-12-13T11:13:46.348Z,24.50
2018-12-13T11:14:46.327Z,23.00
2018-12-13T11:15:46.324Z,26.00
2018-12-13T11:16:46.307Z,24.00
2018-12-13T11:17:46.295Z,25.20
2018-12-13T11:18:46.288Z,25.10
2018-12-13T11:19:46.277Z,25.40
2018-12-13T11:20:46.271Z,25.00
2018-12-13T11:21:46.254Z,23.40
2018-12-13T11:22:46.251Z,20.40
2018-12-13T11:23:46.285Z,19.30
2018-12-13T11:24:47.223Z,19.90
2018-12-13T11:25:46.216Z,19.00
2018-12-13T11:26:46.198Z,18.20
2018-12-13T11:27:46.188Z,19.80
2018-12-13T11:28:46.183Z,17.90
2018-12-13T11:29:46.167Z,17.40
2018-12-13T11:30:46.161Z,18.40
2018-12-13T11:31:46.714Z,17.80
2018-12-13T11:32:46.139Z,20.00
2018-12-13T11:33:46.129Z,18.30
2018-12-13T11:34:46.124Z,17.50
2018-12-13T11:35:46.110Z,19.10
2018-12-13T11:36:46.108Z,18.20
2018-12-13T11:37:46.085Z,20.70
2018-12-13T11:38:46.078Z,18.00
2018-12-13T11:39:46.061Z,19.00
2018-12-13T11:40:46.052Z,18.20
2018-12-13T11:41:46.038Z,17.40
2018-12-13T11:42:46.030Z,18.30
2018-12-13T11:43:46.020Z,19.20
2018-12-13T11:44:46.014Z,18.20
2018-12-13T11:45:46.677Z,18.20
2018-12-13T11:46:45.988Z,16.00
2018-12-13T11:47:45.970Z,18.50
2018-12-13T11:48:45.968Z,17.30
2018-12-13T11:49:46.733Z,18.00
2018-12-13T11:50:45.958Z,20.40
2018-12-13T11:51:45.931Z,18.40
2018-12-13T11:52:47.115Z,20.70
2018-12-13T11:53:45.914Z,17.50
2018-12-13T11:54:45.913Z,17.20
2018-12-13T11:55:45.895Z,17.90
2018-12-13T11:56:46.882Z,17.80
2018-12-13T11:57:45.875Z,18.80
2018-12-13T11:58:46.734Z,18.80
2018-12-13T11:59:46.754Z,17.30
2018-12-13T12:00:47.722Z,19.30
2018-12-13T12:01:46.748Z,18.60
2018-12-13T12:02:45.864Z,18.60
2018-12-13T12:03:46.679Z,18.10
2018-12-13T12:04:45.797Z,18.70
2018-12-13T12:05:45.786Z,19.90
2018-12-13T12:06:45.775Z,18.70
2018-12-13T12:07:45.765Z,19.50
2018-12-13T12:08:45.754Z,18.90
2018-12-13T12:09:45.745Z,19.40
2018-12-13T12:10:45.743Z,17.90
2018-12-13T12:11:45.727Z,17.20
2018-12-13T12:12:45.712Z,17.30
2018-12-13T12:13:45.708Z,16.70
2018-12-13T12:14:45.695Z,17.10
2018-12-13T12:15:45.686Z,17.90
2018-12-13T12:16:46.197Z,16.70
2018-12-13T12:17:47.238Z,17.70
2018-12-13T12:18:45.647Z,18.90
2018-12-13T12:19:45.638Z,15.70
2018-12-13T12:20:45.626Z,22.00
2018-12-13T12:21:45.622Z,19.00
2018-12-13T12:22:45.607Z,19.00
2018-12-13T12:23:45.608Z,18.40
2018-12-13T12:24:45.583Z,15.40
2018-12-13T12:25:45.578Z,18.30
2018-12-13T12:26:45.571Z,19.20
2018-12-13T12:27:45.559Z,18.60
2018-12-13T12:28:45.545Z,16.30
2018-12-13T12:29:45.531Z,20.30
2018-12-13T12:30:45.520Z,17.00
2018-12-13T12:31:45.512Z,18.90
2018-12-13T12:32:45.499Z,19.30
2018-12-13T12:33:45.492Z,21.60
2018-12-13T12:34:45.492Z,22.10
2018-12-13T12:35:45.466Z,21.50
2018-12-13T12:36:45.462Z,21.50
2018-12-13T12:37:45.443Z,21.70
2018-12-13T12:38:45.436Z,21.40
2018-12-13T12:39:45.425Z,22.10
2018-12-13T12:40:45.420Z,21.60
2018-12-13T12:41:45.402Z,21.60
2018-12-13T12:42:45.392Z,20.90
2018-12-13T12:43:45.381Z,21.80
2018-12-13T12:44:45.408Z,22.20
2018-12-13T12:45:45.363Z,21.20
2018-12-13T12:46:45.354Z,23.40
2018-12-13T12:47:45.352Z,23.80
2018-12-13T12:48:45.330Z,24.10
2018-12-13T12:49:45.323Z,23.50
2018-12-13T12:50:45.348Z,23.90
2018-12-13T12:51:45.294Z,23.00
2018-12-13T12:52:45.284Z,26.80
2018-12-13T12:53:46.221Z,22.20
2018-12-13T12:54:45.261Z,23.90
2018-12-13T12:55:45.255Z,25.10